Garland's Hourly Summary for Thursday, May 10, 2018
Hour Temp
(f)
RH
(%)
Solar Rad.
(MJ/m2)
Rainfall
(in)
Wind
(mph)
5/10/2018 12:00 AM 74 46 0 0 5.24
5/10/2018 1:00 AM 74 42 0 0 7.75
5/10/2018 2:00 AM 72 45 0 0 9.02
5/10/2018 3:00 AM 70 49 0 0 8.53
5/10/2018 4:00 AM 69 51 0 0 7.14
5/10/2018 5:00 AM 67 53 0 0 5.75
5/10/2018 6:00 AM 65 58 0 0 5.35
5/10/2018 7:00 AM 64 65 0.02 0 4.73
5/10/2018 8:00 AM 64 75 0.51 0 8.67
5/10/2018 9:00 AM 67 71 1.19 0 10.06
5/10/2018 10:00 AM 70 59 1.83 0 8.22
5/10/2018 11:00 AM 74 46 2.49 0 8.55
5/10/2018 12:00 PM 76 41 2.95 0 8.6
5/10/2018 1:00 PM 78 34 3.22 0 12.11
5/10/2018 2:00 PM 80 33 3.25 0 11.91
5/10/2018 3:00 PM 81 37 3.11 0 10.82
5/10/2018 4:00 PM 82 34 2.63 0 10.54
5/10/2018 5:00 PM 82 34 1.98 0 10.76
5/10/2018 6:00 PM 82 37 1.47 0 11.3
5/10/2018 7:00 PM 81 39 0.81 0 11.41
5/10/2018 8:00 PM 80 38 0.3 0 10.1
5/10/2018 9:00 PM 78 41 0.01 0 8.05
5/10/2018 10:00 PM 77 45 0 0 8.28
5/10/2018 11:00 PM 76 46 0 0 7.71
Data Summary 74 46 25.77 0.00 8.78